Time;durP1;ratioP1;P1;durP2;ratioP2;P2;SDS_P1;SDS_P2;PMS_P1;PMS_P2;Temp;Humidity;BMP_temperature;BMP_pressure;BME280_temperature;BME280_humidity;BME280_pressure;Samples;Min_cycle;Max_cycle;Signal;HPM_P1;HPM_P2
2022/09/16 00:01:09;;;;;;;;;;;22.50;99.90;;;;;;5064007;28;19935;-62
2022/09/16 00:03:36;;;;;;;;;;;22.50;99.90;;;;;;5056023;28;19928;-62
2022/09/16 00:06:03;;;;;;;;;;;22.50;99.90;;;;;;5058123;28;19928;-62
2022/09/16 00:08:31;;;;;;;;;;;22.50;99.90;;;;;;5059678;28;19928;-62
2022/09/16 00:11:01;;;;;;;;;;;22.50;99.90;;;;;;5059763;28;19936;-62
2022/09/16 00:13:28;;;;;;;;;;;22.50;99.90;;;;;;5076690;28;19925;-63
2022/09/16 00:15:55;;;;;;;;;;;22.40;99.90;;;;;;5076542;28;19929;-63
2022/09/16 00:18:23;;;;;;;;;;;22.40;99.90;;;;;;5085012;28;19928;-64
2022/09/16 00:20:51;;;;;;;;;;;22.40;99.90;;;;;;5078591;28;19925;-64
2022/09/16 00:23:18;;;;;;;;;;;22.40;99.90;;;;;;5075864;28;19929;-63
2022/09/16 00:25:53;;;;;;;;;;;22.40;99.90;;;;;;5061915;28;19929;-60
2022/09/16 00:28:21;;;;;;;;;;;22.40;99.90;;;;;;5063711;28;19935;-62
2022/09/16 00:30:48;;;;;;;;;;;22.40;99.90;;;;;;5037278;28;19932;-64
2022/09/16 00:33:16;;;;;;;;;;;22.40;99.90;;;;;;5034593;28;20391;-61
2022/09/16 00:35:43;;;;;;;;;;;22.40;99.90;;;;;;5059705;28;19935;-62
2022/09/16 00:38:10;;;;;;;;;;;22.40;99.90;;;;;;5062205;28;20324;-62
2022/09/16 00:40:44;;;;;;;;;;;22.40;99.90;;;;;;5065050;28;19928;-62
2022/09/16 00:43:15;;;;;;;;;;;22.40;99.90;;;;;;5054478;28;19928;-61
2022/09/16 00:45:47;;;;;;;;;;;22.40;99.90;;;;;;5063961;28;21369;-62
2022/09/16 00:48:17;;;;;;;;;;;22.40;99.90;;;;;;5059445;28;19935;-60
2022/09/16 00:50:47;;;;;;;;;;;22.40;99.90;;;;;;5066090;28;19936;-61
2022/09/16 00:53:16;;;;;;;;;;;22.40;99.90;;;;;;5059167;28;19929;-61
2022/09/16 00:55:43;;;;;;;;;;;22.40;99.90;;;;;;5064654;28;19924;-62
2022/09/16 00:58:29;;;;;;;;;;;22.40;99.90;;;;;;5062371;28;19928;-61
2022/09/16 01:00:56;;;;;;;;;;;22.40;99.90;;;;;;5063952;28;19932;-62
2022/09/16 01:03:23;;;;;;;;;;;22.40;99.90;;;;;;5052818;28;19928;-62
2022/09/16 01:05:51;;;;;;;;;;;22.40;99.90;;;;;;5060615;28;20426;-61
2022/09/16 01:08:18;;;;;;;;;;;22.40;99.90;;;;;;5060762;28;20319;-62
2022/09/16 01:10:45;;;;;;;;;;;22.40;99.90;;;;;;5055996;28;20251;-62
2022/09/16 01:13:14;;;;;;;;;;;22.40;99.90;;;;;;5061690;28;20246;-60
2022/09/16 01:15:48;;;;;;;;;;;22.40;99.90;;;;;;5064092;28;19929;-62
2022/09/16 01:18:26;;;;;;;;;;;22.40;99.90;;;;;;5063500;28;19929;-61
2022/09/16 01:21:10;;;;;;;;;;;22.40;99.90;;;;;;5062352;28;20038;-62
2022/09/16 01:23:55;;;;;;;;;;;22.40;99.90;;;;;;5058589;28;19929;-62
2022/09/16 01:26:36;;;;;;;;;;;22.40;99.90;;;;;;5055876;28;19935;-62
2022/09/16 01:29:22;;;;;;;;;;;22.40;99.90;;;;;;5061261;28;19925;-62
2022/09/16 01:32:01;;;;;;;;;;;22.40;99.90;;;;;;5058232;28;19932;-67
2022/09/16 01:34:31;;;;;;;;;;;22.40;99.90;;;;;;5059686;28;19932;-62
2022/09/16 01:36:58;;;;;;;;;;;22.40;99.90;;;;;;5048204;28;20285;-63
2022/09/16 01:39:32;;;;;;;;;;;22.40;99.90;;;;;;5066675;28;20289;-62
2022/09/16 01:41:59;;;;;;;;;;;22.40;99.90;;;;;;5062481;28;20288;-63
2022/09/16 01:44:26;;;;;;;;;;;22.40;99.90;;;;;;5062540;28;19928;-62
2022/09/16 01:47:11;;;;;;;;;;;22.40;99.90;;;;;;5059424;28;20400;-62
2022/09/16 01:49:44;;;;;;;;;;;22.40;99.90;;;;;;5062399;28;19925;-62
2022/09/16 01:52:17;;;;;;;;;;;22.40;99.90;;;;;;5058473;28;20423;-63
2022/09/16 01:54:44;;;;;;;;;;;22.40;99.90;;;;;;5058102;28;19956;-61
2022/09/16 01:57:15;;;;;;;;;;;22.40;99.90;;;;;;5065696;28;19928;-63
2022/09/16 01:59:48;;;;;;;;;;;22.40;99.90;;;;;;5061908;28;19960;-63
2022/09/16 02:02:20;;;;;;;;;;;22.40;99.90;;;;;;5066095;28;20327;-63
2022/09/16 02:04:53;;;;;;;;;;;22.40;99.90;;;;;;5057145;28;20408;-63
2022/09/16 02:07:22;;;;;;;;;;;22.30;99.90;;;;;;5058447;28;19929;-63
2022/09/16 02:09:55;;;;;;;;;;;22.40;99.90;;;;;;5060544;28;19933;-63
2022/09/16 02:12:24;;;;;;;;;;;22.30;99.90;;;;;;5065856;28;19929;-62
2022/09/16 02:14:53;;;;;;;;;;;22.40;99.90;;;;;;5060525;28;20311;-62
2022/09/16 02:17:22;;;;;;;;;;;22.30;99.90;;;;;;5051489;28;19960;-62
2022/09/16 02:19:58;;;;;;;;;;;22.40;99.90;;;;;;5053813;28;19928;-62
2022/09/16 02:22:29;;;;;;;;;;;22.30;99.90;;;;;;5056835;28;19925;-59
2022/09/16 02:24:58;;;;;;;;;;;22.30;99.90;;;;;;5054265;28;20419;-63
2022/09/16 02:27:26;;;;;;;;;;;22.30;99.90;;;;;;5061970;28;19935;-62
2022/09/16 02:30:07;;;;;;;;;;;22.40;99.90;;;;;;5059179;28;19929;-62
2022/09/16 02:32:38;;;;;;;;;;;22.30;99.90;;;;;;5056711;28;19925;-62
2022/09/16 02:35:07;;;;;;;;;;;22.30;99.90;;;;;;5057567;28;20396;-63
2022/09/16 02:37:46;;;;;;;;;;;22.30;99.90;;;;;;5057444;28;19954;-63
2022/09/16 02:40:18;;;;;;;;;;;22.40;99.90;;;;;;5042436;28;19929;-62
2022/09/16 02:42:45;;;;;;;;;;;22.30;99.90;;;;;;5056689;28;19928;-62
2022/09/16 02:45:12;;;;;;;;;;;22.30;99.90;;;;;;5062341;28;19928;-62
2022/09/16 02:47:39;;;;;;;;;;;22.40;99.90;;;;;;5057160;28;20292;-64
2022/09/16 02:50:11;;;;;;;;;;;22.30;99.90;;;;;;5057304;28;19925;-64
2022/09/16 02:52:44;;;;;;;;;;;22.30;99.90;;;;;;5063719;28;19929;-62
2022/09/16 02:55:21;;;;;;;;;;;22.30;99.90;;;;;;5060879;28;19935;-62
2022/09/16 02:57:49;;;;;;;;;;;22.30;99.90;;;;;;5048434;28;19924;-62
2022/09/16 03:00:16;;;;;;;;;;;22.30;99.90;;;;;;5054585;28;20392;-62
2022/09/16 03:02:43;;;;;;;;;;;22.30;99.90;;;;;;5056306;28;19933;-61
2022/09/16 03:05:10;;;;;;;;;;;22.30;99.90;;;;;;5056808;28;19935;-62
2022/09/16 03:07:38;;;;;;;;;;;22.30;99.90;;;;;;5059636;28;19940;-62
2022/09/16 03:10:07;;;;;;;;;;;22.30;99.90;;;;;;5060045;28;19928;-62
2022/09/16 03:12:48;;;;;;;;;;;22.30;99.90;;;;;;5058725;28;19932;-60
2022/09/16 03:15:24;;;;;;;;;;;22.30;99.90;;;;;;5063816;28;19929;-62
2022/09/16 03:18:05;;;;;;;;;;;22.30;99.90;;;;;;5060993;28;19925;-62
2022/09/16 03:20:36;;;;;;;;;;;22.30;99.90;;;;;;5054530;28;19978;-62
2022/09/16 03:23:02;;;;;;;;;;;22.30;99.90;;;;;;5062771;28;19936;-62
2022/09/16 03:25:40;;;;;;;;;;;22.30;99.90;;;;;;5056895;28;19932;-62
2022/09/16 03:28:45;;;;;;;;;;;22.30;99.90;;;;;;5054748;28;19925;-61
2022/09/16 03:31:17;;;;;;;;;;;22.30;99.90;;;;;;5002576;28;19950;-60
2022/09/16 03:33:55;;;;;;;;;;;22.20;99.90;;;;;;4995114;28;20376;-62
2022/09/16 03:36:25;;;;;;;;;;;22.30;99.90;;;;;;4987843;28;19972;-63
2022/09/16 03:38:52;;;;;;;;;;;22.30;99.90;;;;;;5004475;28;19936;-61
2022/09/16 03:41:20;;;;;;;;;;;22.30;99.90;;;;;;4996679;28;19930;-62
2022/09/16 03:43:53;;;;;;;;;;;22.20;99.90;;;;;;4995538;28;19933;-62
2022/09/16 03:46:20;;;;;;;;;;;22.30;99.90;;;;;;4998308;28;19936;-61
2022/09/16 03:48:47;;;;;;;;;;;22.30;99.90;;;;;;5004324;28;19933;-62
2022/09/16 03:51:14;;;;;;;;;;;22.20;99.90;;;;;;5007866;28;19937;-63
2022/09/16 03:53:41;;;;;;;;;;;22.20;99.90;;;;;;4989744;28;19929;-63
2022/09/16 03:56:08;;;;;;;;;;;22.20;99.90;;;;;;5004909;28;19925;-62
2022/09/16 03:58:35;;;;;;;;;;;22.20;99.90;;;;;;5009744;28;19937;-63
2022/09/16 04:01:02;;;;;;;;;;;22.20;99.90;;;;;;5001680;28;19933;-62
2022/09/16 04:03:30;;;;;;;;;;;22.20;99.90;;;;;;5061188;28;19939;-62
2022/09/16 04:05:59;;;;;;;;;;;22.20;99.90;;;;;;5063224;28;19928;-62
2022/09/16 04:08:26;;;;;;;;;;;22.20;99.90;;;;;;5065712;28;19928;-62
2022/09/16 04:10:54;;;;;;;;;;;22.20;99.90;;;;;;5065182;28;20431;-64
2022/09/16 04:13:21;;;;;;;;;;;22.20;99.90;;;;;;5067101;28;19932;-62
2022/09/16 04:15:49;;;;;;;;;;;22.20;99.90;;;;;;5059625;28;19933;-63
2022/09/16 04:18:16;;;;;;;;;;;22.20;99.90;;;;;;5059603;28;19936;-63
2022/09/16 04:20:43;;;;;;;;;;;22.20;99.90;;;;;;5058600;28;19932;-64
2022/09/16 04:23:10;;;;;;;;;;;22.20;99.90;;;;;;5048830;28;19928;-64
2022/09/16 04:25:39;;;;;;;;;;;22.20;99.90;;;;;;5056978;28;19928;-63
2022/09/16 04:28:07;;;;;;;;;;;22.20;99.90;;;;;;5069495;28;20319;-63
2022/09/16 04:30:35;;;;;;;;;;;22.20;99.90;;;;;;5062057;28;19947;-64
2022/09/16 04:33:02;;;;;;;;;;;22.20;99.90;;;;;;5055469;28;19935;-62
2022/09/16 04:35:29;;;;;;;;;;;22.20;99.90;;;;;;5060966;28;19933;-63
2022/09/16 04:37:57;;;;;;;;;;;22.20;99.90;;;;;;5058180;28;19928;-63
2022/09/16 04:40:24;;;;;;;;;;;22.20;99.90;;;;;;5054817;28;19925;-63
2022/09/16 04:42:51;;;;;;;;;;;22.20;99.90;;;;;;5050746;28;19928;-63
2022/09/16 04:45:19;;;;;;;;;;;22.20;99.90;;;;;;5048750;28;19951;-63
2022/09/16 04:47:46;;;;;;;;;;;22.10;99.90;;;;;;5067835;28;19924;-63
2022/09/16 04:50:13;;;;;;;;;;;22.20;99.90;;;;;;5072492;28;20503;-63
2022/09/16 04:52:42;;;;;;;;;;;22.20;99.90;;;;;;5063988;28;20452;-64
2022/09/16 04:55:09;;;;;;;;;;;22.20;99.90;;;;;;5059085;28;19936;-63
2022/09/16 04:57:36;;;;;;;;;;;22.10;99.90;;;;;;5066314;28;19932;-63
2022/09/16 05:00:03;;;;;;;;;;;22.10;99.90;;;;;;5061344;28;20276;-63
2022/09/16 05:02:30;;;;;;;;;;;22.10;99.90;;;;;;5048603;28;19951;-63
2022/09/16 05:04:57;;;;;;;;;;;22.20;99.90;;;;;;5065546;28;20400;-63
2022/09/16 05:07:26;;;;;;;;;;;22.20;99.90;;;;;;5062357;28;19925;-61
2022/09/16 05:09:53;;;;;;;;;;;22.10;99.90;;;;;;5061388;28;19940;-63
2022/09/16 05:12:21;;;;;;;;;;;22.10;99.90;;;;;;5061670;28;20438;-63
2022/09/16 05:14:48;;;;;;;;;;;22.10;99.90;;;;;;5062871;28;19928;-65
2022/09/16 05:17:15;;;;;;;;;;;22.10;99.90;;;;;;5041402;28;20327;-63
2022/09/16 05:20:02;;;;;;;;;;;22.10;99.90;;;;;;5058825;28;19928;-63
2022/09/16 05:22:29;;;;;;;;;;;22.20;99.90;;;;;;5057897;28;19940;-62
2022/09/16 05:24:56;;;;;;;;;;;22.10;99.90;;;;;;5055339;28;19935;-63
2022/09/16 05:27:26;;;;;;;;;;;22.10;99.90;;;;;;5059313;28;19928;-62
2022/09/16 05:29:53;;;;;;;;;;;22.10;99.90;;;;;;5058723;28;19929;-62
2022/09/16 05:32:21;;;;;;;;;;;22.10;99.90;;;;;;5058683;28;19929;-62
2022/09/16 05:34:49;;;;;;;;;;;22.10;99.90;;;;;;5040833;28;19929;-62
2022/09/16 05:37:16;;;;;;;;;;;22.10;99.90;;;;;;5064629;28;19932;-63
2022/09/16 05:39:43;;;;;;;;;;;22.10;99.90;;;;;;5062335;28;19928;-65
2022/09/16 05:42:10;;;;;;;;;;;22.10;99.90;;;;;;5059705;28;19936;-61
2022/09/16 05:44:37;;;;;;;;;;;22.10;99.90;;;;;;5053748;28;19928;-64
2022/09/16 05:47:04;;;;;;;;;;;22.10;99.90;;;;;;5065788;28;19932;-64
2022/09/16 05:52:08;;;;;;;;;;;22.20;99.90;;;;;;4998671;28;19930;-66
2022/09/16 05:54:35;;;;;;;;;;;22.10;99.90;;;;;;4998703;28;20313;-68
2022/09/16 05:57:03;;;;;;;;;;;22.10;99.90;;;;;;4992391;28;19929;-69
2022/09/16 05:59:33;;;;;;;;;;;22.10;99.90;;;;;;4991789;28;19933;-67
2022/09/16 06:02:00;;;;;;;;;;;22.10;99.90;;;;;;5005240;28;19940;-65
2022/09/16 06:04:27;;;;;;;;;;;22.10;99.90;;;;;;5004047;28;20373;-67
2022/09/16 06:06:54;;;;;;;;;;;22.20;99.90;;;;;;5007958;28;19926;-66
2022/09/16 06:09:23;;;;;;;;;;;22.20;99.90;;;;;;5007807;28;19932;-68
2022/09/16 06:11:51;;;;;;;;;;;22.20;99.90;;;;;;5004089;28;19934;-66
2022/09/16 06:14:21;;;;;;;;;;;22.20;99.90;;;;;;4994211;28;20557;-66
2022/09/16 06:16:49;;;;;;;;;;;22.20;99.90;;;;;;4998779;28;19933;-67
2022/09/16 06:19:17;;;;;;;;;;;22.10;99.90;;;;;;5002803;28;20392;-66
2022/09/16 06:21:44;;;;;;;;;;;22.00;99.90;;;;;;5000901;28;19936;-69
2022/09/16 06:24:12;;;;;;;;;;;22.00;99.90;;;;;;5007926;28;19925;-67
2022/09/16 06:26:40;;;;;;;;;;;22.00;99.90;;;;;;5005119;28;19925;-66
2022/09/16 06:29:08;;;;;;;;;;;22.00;99.90;;;;;;5006673;28;20283;-67
2022/09/16 06:31:36;;;;;;;;;;;22.00;99.90;;;;;;5004439;28;19937;-67
2022/09/16 06:34:04;;;;;;;;;;;22.10;99.90;;;;;;5004935;28;19926;-67
2022/09/16 06:36:32;;;;;;;;;;;22.00;99.90;;;;;;5008983;28;19925;-66
2022/09/16 06:39:00;;;;;;;;;;;22.00;99.90;;;;;;5006308;28;19926;-66
2022/09/16 06:41:27;;;;;;;;;;;22.10;99.90;;;;;;4990274;28;19932;-66
2022/09/16 06:43:54;;;;;;;;;;;22.00;99.90;;;;;;5007181;28;19929;-67
2022/09/16 06:46:23;;;;;;;;;;;22.10;99.90;;;;;;5005969;28;19929;-67
2022/09/16 06:48:51;;;;;;;;;;;22.10;99.90;;;;;;5007937;28;19940;-67
2022/09/16 06:51:26;;;;;;;;;;;22.10;99.90;;;;;;5020749;28;19926;-68
2022/09/16 06:53:55;;;;;;;;;;;22.00;99.90;;;;;;5016990;28;19929;-68
2022/09/16 06:56:22;;;;;;;;;;;22.00;99.90;;;;;;5012983;28;19952;-67
2022/09/16 06:58:52;;;;;;;;;;;22.00;99.90;;;;;;5010108;28;19932;-67
2022/09/16 07:01:23;;;;;;;;;;;22.00;99.90;;;;;;5013697;28;19932;-68
2022/09/16 07:03:51;;;;;;;;;;;22.00;99.90;;;;;;5017269;28;19934;-67
2022/09/16 07:06:19;;;;;;;;;;;22.00;99.90;;;;;;4992966;28;19925;-67
2022/09/16 07:08:46;;;;;;;;;;;22.00;99.90;;;;;;5006538;28;19926;-67
2022/09/16 07:11:15;;;;;;;;;;;22.10;99.90;;;;;;4987586;28;19937;-67
2022/09/16 07:13:42;;;;;;;;;;;22.10;99.90;;;;;;5004212;28;20291;-65
2022/09/16 07:16:10;;;;;;;;;;;22.10;99.90;;;;;;5008686;28;19926;-67
2022/09/16 07:18:41;;;;;;;;;;;22.10;99.90;;;;;;5007745;28;19926;-66
2022/09/16 07:21:15;;;;;;;;;;;22.10;99.90;;;;;;5000801;28;19938;-68
2022/09/16 07:23:42;;;;;;;;;;;22.10;99.90;;;;;;5003273;28;19925;-67
2022/09/16 07:26:13;;;;;;;;;;;22.20;99.90;;;;;;5009904;28;19925;-62
2022/09/16 07:28:41;;;;;;;;;;;22.20;99.90;;;;;;4995678;28;20329;-63
2022/09/16 07:31:10;;;;;;;;;;;22.20;99.90;;;;;;5007678;28;19925;-63
2022/09/16 07:33:38;;;;;;;;;;;22.20;99.90;;;;;;5008678;28;20311;-64
2022/09/16 07:36:06;;;;;;;;;;;22.20;99.90;;;;;;5007061;28;19952;-64
2022/09/16 07:38:33;;;;;;;;;;;22.30;99.90;;;;;;5005779;28;19926;-59
2022/09/16 07:41:07;;;;;;;;;;;22.30;99.90;;;;;;5005429;28;20170;-61
2022/09/16 07:43:39;;;;;;;;;;;22.30;99.90;;;;;;4997279;28;19948;-61
2022/09/16 07:46:10;;;;;;;;;;;22.30;99.90;;;;;;5006292;28;19940;-62
2022/09/16 07:48:38;;;;;;;;;;;22.30;99.90;;;;;;5008111;28;19929;-64
2022/09/16 07:51:06;;;;;;;;;;;22.30;99.90;;;;;;5005616;28;19936;-63
2022/09/16 07:53:34;;;;;;;;;;;22.30;99.90;;;;;;5005305;28;19925;-63
2022/09/16 07:56:02;;;;;;;;;;;22.30;99.90;;;;;;5012119;28;19933;-63
2022/09/16 07:58:29;;;;;;;;;;;22.30;99.90;;;;;;5007941;28;19930;-66
2022/09/16 08:00:57;;;;;;;;;;;22.30;99.90;;;;;;5008049;28;19929;-64
2022/09/16 08:03:44;;;;;;;;;;;22.30;99.90;;;;;;4997875;28;20310;-65
2022/09/16 08:06:13;;;;;;;;;;;22.30;99.90;;;;;;4989374;28;19926;-66
2022/09/16 08:08:40;;;;;;;;;;;22.20;99.90;;;;;;5009995;28;20467;-63
2022/09/16 08:11:08;;;;;;;;;;;22.30;99.90;;;;;;5003210;28;19936;-65
2022/09/16 08:13:36;;;;;;;;;;;22.30;99.90;;;;;;4993894;28;19929;-64
2022/09/16 08:16:07;;;;;;;;;;;22.30;99.90;;;;;;4992944;28;19932;-65
2022/09/16 08:18:34;;;;;;;;;;;22.30;99.90;;;;;;5011947;28;19945;-65
2022/09/16 08:21:06;;;;;;;;;;;22.30;99.90;;;;;;5008887;28;19929;-64
2022/09/16 08:23:34;;;;;;;;;;;22.30;99.90;;;;;;5004281;28;20389;-67
2022/09/16 08:26:02;;;;;;;;;;;22.30;99.90;;;;;;5008602;28;20164;-63
2022/09/16 08:28:29;;;;;;;;;;;22.30;99.90;;;;;;4990374;28;20317;-63
2022/09/16 08:31:17;;;;;;;;;;;22.30;99.90;;;;;;5012790;28;19925;-66
2022/09/16 08:33:44;;;;;;;;;;;22.30;99.90;;;;;;5012260;28;19936;-63
2022/09/16 08:36:14;;;;;;;;;;;22.30;99.90;;;;;;5011106;28;19940;-64
2022/09/16 08:38:42;;;;;;;;;;;22.30;99.90;;;;;;5010258;28;19964;-61
2022/09/16 08:41:12;;;;;;;;;;;22.30;99.90;;;;;;5009112;28;19933;-64
2022/09/16 08:43:46;;;;;;;;;;;22.30;99.90;;;;;;5010491;28;19925;-65
2022/09/16 08:46:16;;;;;;;;;;;22.40;99.90;;;;;;5010448;28;19957;-66
2022/09/16 08:48:50;;;;;;;;;;;22.40;99.90;;;;;;5005463;28;20060;-66
2022/09/16 08:51:18;;;;;;;;;;;22.40;99.90;;;;;;4990163;28;19929;-63
2022/09/16 08:53:53;;;;;;;;;;;22.40;99.90;;;;;;5005577;28;19930;-64
2022/09/16 08:56:22;;;;;;;;;;;22.40;99.90;;;;;;5005137;28;20460;-63
2022/09/16 08:58:52;;;;;;;;;;;22.40;99.90;;;;;;5005807;28;19933;-64
2022/09/16 09:01:31;;;;;;;;;;;22.40;99.90;;;;;;5006553;28;19941;-65
2022/09/16 09:03:59;;;;;;;;;;;22.40;99.90;;;;;;5005112;28;20317;-65
2022/09/16 09:06:35;;;;;;;;;;;22.40;99.90;;;;;;5011759;28;19937;-64
2022/09/16 09:09:08;;;;;;;;;;;22.40;99.90;;;;;;5017444;28;19929;-66
2022/09/16 09:11:35;;;;;;;;;;;22.40;99.90;;;;;;5011783;28;19935;-65
2022/09/16 09:14:19;;;;;;;;;;;22.40;99.90;;;;;;5020946;28;19929;-65
2022/09/16 09:16:47;;;;;;;;;;;22.40;99.90;;;;;;5018263;28;19978;-63
2022/09/16 09:19:17;;;;;;;;;;;22.40;99.90;;;;;;5020348;28;19925;-64
2022/09/16 09:22:04;;;;;;;;;;;22.40;99.90;;;;;;5017477;28;19925;-64
2022/09/16 09:24:34;;;;;;;;;;;22.40;99.90;;;;;;5013996;28;19952;-62
2022/09/16 09:27:07;;;;;;;;;;;22.40;99.90;;;;;;5007161;28;19934;-63
2022/09/16 09:29:46;;;;;;;;;;;22.40;99.90;;;;;;5008191;28;19929;-60
2022/09/16 09:32:24;;;;;;;;;;;22.30;99.90;;;;;;4992552;28;19932;-62
2022/09/16 09:35:09;;;;;;;;;;;22.40;99.90;;;;;;5002679;28;19945;-63
2022/09/16 09:37:40;;;;;;;;;;;22.40;99.90;;;;;;5007315;28;19929;-62
2022/09/16 09:40:33;;;;;;;;;;;22.30;99.90;;;;;;5012030;28;19937;-63
2022/09/16 09:43:00;;;;;;;;;;;22.40;99.90;;;;;;4985103;28;19929;-63
2022/09/16 09:45:33;;;;;;;;;;;22.30;99.90;;;;;;5009531;28;19933;-62
2022/09/16 09:48:09;;;;;;;;;;;22.30;99.90;;;;;;5002076;28;20329;-65
2022/09/16 09:50:40;;;;;;;;;;;22.30;99.90;;;;;;5003456;28;19980;-63
2022/09/16 09:53:07;;;;;;;;;;;22.30;99.90;;;;;;5003274;28;19929;-66
2022/09/16 09:55:35;;;;;;;;;;;22.30;99.90;;;;;;5009242;28;19926;-63
2022/09/16 09:58:14;;;;;;;;;;;22.30;99.90;;;;;;5006294;28;20314;-61
2022/09/16 10:00:42;;;;;;;;;;;22.30;99.90;;;;;;5001092;28;19926;-63
2022/09/16 10:03:10;;;;;;;;;;;22.30;99.90;;;;;;5000067;28;19933;-62
2022/09/16 10:05:38;;;;;;;;;;;22.30;99.90;;;;;;5008149;28;20002;-62
2022/09/16 10:08:08;;;;;;;;;;;22.30;99.90;;;;;;5011247;28;20427;-62
2022/09/16 10:10:43;;;;;;;;;;;22.30;99.90;;;;;;5004839;28;19937;-63
2022/09/16 10:13:11;;;;;;;;;;;22.30;99.90;;;;;;5005054;28;20389;-60
2022/09/16 10:15:39;;;;;;;;;;;22.30;99.90;;;;;;5009219;28;19933;-64
2022/09/16 10:18:28;;;;;;;;;;;22.30;99.90;;;;;;5006024;28;19952;-63
2022/09/16 10:20:58;;;;;;;;;;;22.20;99.90;;;;;;5006353;28;19945;-65
2022/09/16 10:23:25;;;;;;;;;;;22.30;99.90;;;;;;5009795;28;19929;-66
2022/09/16 10:26:08;;;;;;;;;;;22.20;99.90;;;;;;5002762;28;19926;-64
2022/09/16 10:28:37;;;;;;;;;;;22.30;99.90;;;;;;5008155;28;19937;-65
2022/09/16 10:31:05;;;;;;;;;;;22.30;99.90;;;;;;5005063;28;19929;-66
2022/09/16 10:33:35;;;;;;;;;;;22.30;99.90;;;;;;5004084;28;19934;-65
2022/09/16 10:36:04;;;;;;;;;;;22.20;99.90;;;;;;5005696;28;19935;-63
2022/09/16 10:38:36;;;;;;;;;;;22.30;99.90;;;;;;5009158;28;19926;-62
2022/09/16 10:41:06;;;;;;;;;;;22.30;99.90;;;;;;4999956;28;19926;-63
2022/09/16 10:43:35;;;;;;;;;;;22.30;99.90;;;;;;4999625;28;19930;-63
2022/09/16 10:46:03;;;;;;;;;;;22.30;99.90;;;;;;4989533;28;20405;-65
2022/09/16 10:48:33;;;;;;;;;;;22.30;99.90;;;;;;4990624;28;19929;-64
2022/09/16 10:51:04;;;;;;;;;;;22.30;99.90;;;;;;5002491;28;19925;-63
2022/09/16 10:53:36;;;;;;;;;;;22.30;99.90;;;;;;5005170;28;19930;-62
2022/09/16 10:56:17;;;;;;;;;;;22.30;99.90;;;;;;4989301;28;19941;-64
2022/09/16 10:58:45;;;;;;;;;;;22.30;99.90;;;;;;4998889;28;19936;-63
2022/09/16 11:01:12;;;;;;;;;;;22.30;99.90;;;;;;5008758;28;19933;-63
2022/09/16 11:04:00;;;;;;;;;;;22.30;99.90;;;;;;5005665;28;19956;-63
2022/09/16 11:06:33;;;;;;;;;;;22.30;99.90;;;;;;5005282;28;19933;-62
2022/09/16 11:09:00;;;;;;;;;;;22.30;99.90;;;;;;4998680;28;19926;-60
2022/09/16 11:11:33;;;;;;;;;;;22.20;99.90;;;;;;5006096;28;19949;-63
2022/09/16 11:14:16;;;;;;;;;;;22.20;99.90;;;;;;4993496;28;19929;-61
2022/09/16 11:17:18;;;;;;;;;;;22.20;99.90;;;;;;5003803;28;19936;-62
2022/09/16 11:19:48;;;;;;;;;;;22.20;99.90;;;;;;4936178;28;19937;-64
2022/09/16 11:22:30;;;;;;;;;;;22.30;99.90;;;;;;4994767;28;19936;-64
2022/09/16 11:25:07;;;;;;;;;;;22.30;99.90;;;;;;5004426;28;19929;-62
2022/09/16 11:27:52;;;;;;;;;;;22.30;99.90;;;;;;5014165;28;19929;-65
2022/09/16 11:30:23;;;;;;;;;;;22.20;99.90;;;;;;5017234;28;19955;-63
2022/09/16 11:33:13;;;;;;;;;;;22.20;99.90;;;;;;5012865;28;19930;-65
2022/09/16 11:36:04;;;;;;;;;;;22.30;99.90;;;;;;5013677;28;19937;-63
2022/09/16 11:38:40;;;;;;;;;;;22.30;99.90;;;;;;5004278;28;19926;-64
2022/09/16 11:41:22;;;;;;;;;;;22.20;99.90;;;;;;5010660;28;20124;-62
2022/09/16 11:44:06;;;;;;;;;;;22.30;99.90;;;;;;5007949;28;19929;-68
2022/09/16 11:47:00;;;;;;;;;;;22.20;99.90;;;;;;4990289;28;19925;-64
2022/09/16 11:49:30;;;;;;;;;;;22.20;99.90;;;;;;5012536;28;19932;-68
2022/09/16 11:52:07;;;;;;;;;;;22.30;99.90;;;;;;5010120;28;19941;-65
2022/09/16 11:54:44;;;;;;;;;;;22.30;99.90;;;;;;5007985;28;19929;-63
2022/09/16 11:57:21;;;;;;;;;;;22.20;99.90;;;;;;5008529;28;19926;-62
2022/09/16 11:59:59;;;;;;;;;;;22.20;99.90;;;;;;4998243;28;19937;-62
2022/09/16 12:02:41;;;;;;;;;;;22.20;99.90;;;;;;5003417;28;19932;-63
2022/09/16 12:05:21;;;;;;;;;;;22.20;99.90;;;;;;5004956;28;19949;-63
2022/09/16 12:07:55;;;;;;;;;;;22.20;99.90;;;;;;4992405;28;19964;-65
2022/09/16 12:10:24;;;;;;;;;;;22.20;99.90;;;;;;5008960;28;19929;-65
2022/09/16 12:12:59;;;;;;;;;;;22.20;99.90;;;;;;5008653;28;19953;-64
2022/09/16 12:15:29;;;;;;;;;;;22.20;99.90;;;;;;5002294;28;19933;-61
2022/09/16 12:18:08;;;;;;;;;;;22.30;99.90;;;;;;5010871;28;19929;-65
2022/09/16 12:20:40;;;;;;;;;;;22.20;99.90;;;;;;5012708;28;20258;-61
2022/09/16 12:23:19;;;;;;;;;;;22.20;99.90;;;;;;5012077;28;20424;-64
2022/09/16 12:26:08;;;;;;;;;;;22.20;99.90;;;;;;5005008;28;19929;-62
2022/09/16 12:28:54;;;;;;;;;;;22.20;99.90;;;;;;5010711;28;20416;-63
2022/09/16 12:31:30;;;;;;;;;;;22.20;99.90;;;;;;4984525;28;19937;-61
2022/09/16 12:34:08;;;;;;;;;;;22.20;99.90;;;;;;4987780;28;19930;-61
2022/09/16 12:36:37;;;;;;;;;;;22.20;99.90;;;;;;4987059;28;20382;-64
2022/09/16 12:39:04;;;;;;;;;;;22.20;99.90;;;;;;4985201;28;20525;-62
2022/09/16 12:41:31;;;;;;;;;;;22.20;99.90;;;;;;4991036;28;19936;-61
2022/09/16 12:44:05;;;;;;;;;;;22.20;99.90;;;;;;4985046;28;19926;-62
2022/09/16 12:47:09;;;;;;;;;;;22.20;99.90;;;;;;4983412;28;19930;-61
2022/09/16 12:49:42;;;;;;;;;;;22.30;99.90;;;;;;4984495;28;19937;-62
2022/09/16 12:52:21;;;;;;;;;;;22.30;99.90;;;;;;4980940;28;19930;-63
2022/09/16 12:55:01;;;;;;;;;;;22.30;99.90;;;;;;4989090;28;19936;-60
2022/09/16 12:57:41;;;;;;;;;;;22.30;99.90;;;;;;4987703;28;19933;-62
2022/09/16 13:00:17;;;;;;;;;;;22.30;99.90;;;;;;4992399;28;19936;-63
2022/09/16 13:02:50;;;;;;;;;;;22.30;99.90;;;;;;4992737;28;19933;-61
2022/09/16 13:05:24;;;;;;;;;;;22.30;99.90;;;;;;4972501;28;20326;-62
2022/09/16 13:07:57;;;;;;;;;;;22.30;99.90;;;;;;4989905;28;19932;-63
2022/09/16 13:10:30;;;;;;;;;;;22.30;99.90;;;;;;4982739;28;20640;-62
2022/09/16 13:13:22;;;;;;;;;;;22.30;99.90;;;;;;4958672;28;19961;-61
2022/09/16 13:15:56;;;;;;;;;;;22.20;99.90;;;;;;4985696;28;19937;-61
2022/09/16 13:18:36;;;;;;;;;;;22.30;99.90;;;;;;4983922;28;19949;-62
2022/09/16 13:21:12;;;;;;;;;;;22.20;99.90;;;;;;4984540;28;19941;-62
2022/09/16 13:23:42;;;;;;;;;;;22.20;99.90;;;;;;4986010;28;19937;-62
2022/09/16 13:26:09;;;;;;;;;;;22.20;99.90;;;;;;4984116;28;19930;-62
2022/09/16 13:28:37;;;;;;;;;;;22.30;99.90;;;;;;4969419;28;20303;-60
2022/09/16 13:31:16;;;;;;;;;;;22.30;99.90;;;;;;4980625;28;19936;-61
2022/09/16 13:33:43;;;;;;;;;;;22.30;99.90;;;;;;4989778;28;19945;-60
2022/09/16 13:36:13;;;;;;;;;;;22.40;99.90;;;;;;4986065;28;19934;-63
2022/09/16 13:38:41;;;;;;;;;;;22.40;99.90;;;;;;4986682;28;19934;-62
2022/09/16 13:41:10;;;;;;;;;;;22.40;99.90;;;;;;4985385;28;19926;-60
2022/09/16 13:43:40;;;;;;;;;;;22.50;99.90;;;;;;4982087;28;19949;-62
2022/09/16 13:46:14;;;;;;;;;;;22.60;99.90;;;;;;4982565;28;19926;-59
2022/09/16 13:48:44;;;;;;;;;;;22.60;99.90;;;;;;4983465;28;19926;-57
2022/09/16 13:51:21;;;;;;;;;;;22.60;99.90;;;;;;4983304;28;20369;-61
2022/09/16 13:53:50;;;;;;;;;;;22.60;99.90;;;;;;4981480;28;19953;-62
2022/09/16 13:56:32;;;;;;;;;;;22.50;99.90;;;;;;4988325;28;20260;-60
2022/09/16 13:59:05;;;;;;;;;;;22.50;99.90;;;;;;4984581;28;19937;-60
2022/09/16 14:01:37;;;;;;;;;;;22.40;99.90;;;;;;4986742;28;19953;-62
2022/09/16 14:04:27;;;;;;;;;;;22.40;99.90;;;;;;4981368;28;19934;-61
2022/09/16 14:07:10;;;;;;;;;;;22.40;99.90;;;;;;4979564;28;19934;-61
2022/09/16 14:09:43;;;;;;;;;;;22.30;99.90;;;;;;4987271;28;19933;-61
2022/09/16 14:12:22;;;;;;;;;;;22.30;99.90;;;;;;4984657;28;20499;-62
2022/09/16 14:14:49;;;;;;;;;;;22.30;99.90;;;;;;4984075;28;19933;-59
2022/09/16 14:17:24;;;;;;;;;;;22.30;99.90;;;;;;4987978;28;19933;-62
2022/09/16 14:19:54;;;;;;;;;;;22.30;99.90;;;;;;4985930;28;19941;-59
2022/09/16 14:22:22;;;;;;;;;;;22.30;99.90;;;;;;4987325;28;19930;-63
2022/09/16 14:24:49;;;;;;;;;;;22.30;99.90;;;;;;4971903;28;19925;-61
2022/09/16 14:27:35;;;;;;;;;;;22.40;99.90;;;;;;4983875;28;19929;-58
2022/09/16 14:30:04;;;;;;;;;;;22.30;99.90;;;;;;4974699;28;19937;-60
2022/09/16 14:32:36;;;;;;;;;;;22.30;99.90;;;;;;4974799;28;20409;-61
2022/09/16 14:35:08;;;;;;;;;;;22.30;99.90;;;;;;4987077;28;20420;-62
2022/09/16 14:37:36;;;;;;;;;;;22.30;99.90;;;;;;4985222;28;19936;-61
2022/09/16 14:40:09;;;;;;;;;;;22.30;99.90;;;;;;4988630;28;19936;-61
2022/09/16 14:42:38;;;;;;;;;;;22.40;99.90;;;;;;4964838;28;19958;-61
2022/09/16 14:45:07;;;;;;;;;;;22.40;99.90;;;;;;4969649;28;19937;-61